sensor_id;sensor_type;location;lat;lon;timestamp;P1;durP1;ratioP1;P2;durP2;ratioP2
56329;SDS011;42236;48.058;10.632;2023-05-29T00:02:16;7.28;;;4.07;;
56329;SDS011;42236;48.058;10.632;2023-05-29T00:05:02;4.88;;;2.88;;
56329;SDS011;42236;48.058;10.632;2023-05-29T00:07:48;6.47;;;4.32;;
56329;SDS011;42236;48.058;10.632;2023-05-29T00:10:35;6.70;;;4.22;;
56329;SDS011;42236;48.058;10.632;2023-05-29T00:13:22;6.32;;;4.30;;
56329;SDS011;42236;48.058;10.632;2023-05-29T00:16:08;7.28;;;4.57;;
56329;SDS011;42236;48.058;10.632;2023-05-29T00:18:54;9.23;;;4.75;;
56329;SDS011;42236;48.058;10.632;2023-05-29T00:21:40;6.57;;;4.10;;
56329;SDS011;42236;48.058;10.632;2023-05-29T00:24:26;9.50;;;5.03;;
56329;SDS011;42236;48.058;10.632;2023-05-29T00:27:11;8.35;;;4.63;;
56329;SDS011;42236;48.058;10.632;2023-05-29T00:29:57;7.47;;;4.53;;
56329;SDS011;42236;48.058;10.632;2023-05-29T00:32:43;5.43;;;3.95;;
56329;SDS011;42236;48.058;10.632;2023-05-29T00:35:29;5.95;;;4.05;;
56329;SDS011;42236;48.058;10.632;2023-05-29T00:38:15;9.75;;;4.63;;
56329;SDS011;42236;48.058;10.632;2023-05-29T00:41:01;5.95;;;4.75;;
56329;SDS011;42236;48.058;10.632;2023-05-29T00:43:47;9.73;;;5.28;;
56329;SDS011;42236;48.058;10.632;2023-05-29T00:46:34;10.77;;;4.90;;
56329;SDS011;42236;48.058;10.632;2023-05-29T00:49:20;9.93;;;4.78;;
56329;SDS011;42236;48.058;10.632;2023-05-29T00:52:07;7.28;;;4.45;;
56329;SDS011;42236;48.058;10.632;2023-05-29T00:54:55;8.10;;;4.25;;
56329;SDS011;42236;48.058;10.632;2023-05-29T00:57:42;6.97;;;3.97;;
56329;SDS011;42236;48.058;10.632;2023-05-29T01:00:28;7.82;;;4.50;;
56329;SDS011;42236;48.058;10.632;2023-05-29T01:03:15;7.78;;;4.53;;
56329;SDS011;42236;48.058;10.632;2023-05-29T01:06:03;6.43;;;4.60;;
56329;SDS011;42236;48.058;10.632;2023-05-29T01:08:48;9.35;;;4.88;;
56329;SDS011;42236;48.058;10.632;2023-05-29T01:17:41;9.53;;;5.17;;
56329;SDS011;42236;48.058;10.632;2023-05-29T01:29:32;7.75;;;4.93;;
56329;SDS011;42236;48.058;10.632;2023-05-29T01:32:19;9.67;;;4.67;;
56329;SDS011;42236;48.058;10.632;2023-05-29T01:35:05;7.60;;;4.17;;
56329;SDS011;42236;48.058;10.632;2023-05-29T01:37:52;9.70;;;5.43;;
56329;SDS011;42236;48.058;10.632;2023-05-29T01:40:37;8.63;;;4.80;;
56329;SDS011;42236;48.058;10.632;2023-05-29T01:43:23;7.90;;;4.72;;
56329;SDS011;42236;48.058;10.632;2023-05-29T01:46:10;10.70;;;5.30;;
56329;SDS011;42236;48.058;10.632;2023-05-29T01:48:56;6.90;;;4.32;;
56329;SDS011;42236;48.058;10.632;2023-05-29T01:51:42;7.43;;;4.30;;
56329;SDS011;42236;48.058;10.632;2023-05-29T01:54:28;9.45;;;4.65;;
56329;SDS011;42236;48.058;10.632;2023-05-29T01:57:14;8.35;;;4.82;;
56329;SDS011;42236;48.058;10.632;2023-05-29T02:00:00;7.60;;;4.18;;
56329;SDS011;42236;48.058;10.632;2023-05-29T02:02:50;9.50;;;4.55;;
56329;SDS011;42236;48.058;10.632;2023-05-29T02:05:35;8.02;;;4.70;;
56329;SDS011;42236;48.058;10.632;2023-05-29T02:08:21;7.93;;;4.82;;
56329;SDS011;42236;48.058;10.632;2023-05-29T02:11:07;7.60;;;4.40;;
56329;SDS011;42236;48.058;10.632;2023-05-29T02:13:53;8.90;;;4.45;;
56329;SDS011;42236;48.058;10.632;2023-05-29T02:16:39;8.43;;;4.63;;
56329;SDS011;42236;48.058;10.632;2023-05-29T02:19:26;7.05;;;4.10;;
56329;SDS011;42236;48.058;10.632;2023-05-29T02:22:12;5.50;;;3.78;;
56329;SDS011;42236;48.058;10.632;2023-05-29T02:24:58;5.83;;;4.03;;
56329;SDS011;42236;48.058;10.632;2023-05-29T02:27:44;7.75;;;4.90;;
56329;SDS011;42236;48.058;10.632;2023-05-29T02:30:30;9.00;;;4.80;;
56329;SDS011;42236;48.058;10.632;2023-05-29T02:33:16;8.00;;;4.07;;
56329;SDS011;42236;48.058;10.632;2023-05-29T02:36:01;6.00;;;4.47;;
56329;SDS011;42236;48.058;10.632;2023-05-29T02:38:47;6.85;;;4.43;;
56329;SDS011;42236;48.058;10.632;2023-05-29T02:41:32;7.75;;;4.45;;
56329;SDS011;42236;48.058;10.632;2023-05-29T02:44:18;8.88;;;4.80;;
56329;SDS011;42236;48.058;10.632;2023-05-29T02:47:04;9.00;;;4.50;;
56329;SDS011;42236;48.058;10.632;2023-05-29T02:49:50;9.00;;;4.40;;
56329;SDS011;42236;48.058;10.632;2023-05-29T02:52:36;6.97;;;4.37;;
56329;SDS011;42236;48.058;10.632;2023-05-29T02:55:25;8.87;;;4.03;;
56329;SDS011;42236;48.058;10.632;2023-05-29T02:58:10;10.13;;;4.67;;
56329;SDS011;42236;48.058;10.632;2023-05-29T03:00:59;10.87;;;3.93;;
56329;SDS011;42236;48.058;10.632;2023-05-29T03:03:45;8.67;;;3.93;;
56329;SDS011;42236;48.058;10.632;2023-05-29T03:06:31;12.07;;;4.87;;
56329;SDS011;42236;48.058;10.632;2023-05-29T03:09:17;5.88;;;4.07;;
56329;SDS011;42236;48.058;10.632;2023-05-29T03:12:03;6.57;;;4.13;;
56329;SDS011;42236;48.058;10.632;2023-05-29T03:14:49;6.53;;;4.10;;
56329;SDS011;42236;48.058;10.632;2023-05-29T03:17:35;6.07;;;4.33;;
56329;SDS011;42236;48.058;10.632;2023-05-29T03:20:23;10.07;;;4.90;;
56329;SDS011;42236;48.058;10.632;2023-05-29T03:23:09;8.33;;;3.93;;
56329;SDS011;42236;48.058;10.632;2023-05-29T03:25:54;9.60;;;4.53;;
56329;SDS011;42236;48.058;10.632;2023-05-29T03:28:40;11.73;;;4.53;;
56329;SDS011;42236;48.058;10.632;2023-05-29T03:31:26;9.63;;;3.83;;
56329;SDS011;42236;48.058;10.632;2023-05-29T03:34:11;8.90;;;5.37;;
56329;SDS011;42236;48.058;10.632;2023-05-29T03:36:58;9.33;;;3.93;;
56329;SDS011;42236;48.058;10.632;2023-05-29T03:39:44;8.00;;;4.33;;
56329;SDS011;42236;48.058;10.632;2023-05-29T03:42:30;8.83;;;3.90;;
56329;SDS011;42236;48.058;10.632;2023-05-29T03:45:16;7.07;;;4.30;;
56329;SDS011;42236;48.058;10.632;2023-05-29T03:48:02;12.27;;;4.60;;
56329;SDS011;42236;48.058;10.632;2023-05-29T03:50:48;7.27;;;3.70;;
56329;SDS011;42236;48.058;10.632;2023-05-29T03:53:34;7.63;;;4.50;;
56329;SDS011;42236;48.058;10.632;2023-05-29T03:56:20;13.00;;;5.03;;
56329;SDS011;42236;48.058;10.632;2023-05-29T03:59:06;7.23;;;4.67;;
56329;SDS011;42236;48.058;10.632;2023-05-29T04:01:52;6.57;;;4.43;;
56329;SDS011;42236;48.058;10.632;2023-05-29T04:04:38;9.83;;;4.37;;
56329;SDS011;42236;48.058;10.632;2023-05-29T04:07:25;7.43;;;4.33;;
56329;SDS011;42236;48.058;10.632;2023-05-29T04:10:11;6.13;;;3.90;;
56329;SDS011;42236;48.058;10.632;2023-05-29T04:12:56;6.50;;;3.93;;
56329;SDS011;42236;48.058;10.632;2023-05-29T04:15:42;7.93;;;3.83;;
56329;SDS011;42236;48.058;10.632;2023-05-29T04:18:28;7.00;;;3.80;;
56329;SDS011;42236;48.058;10.632;2023-05-29T04:21:13;9.77;;;4.43;;
56329;SDS011;42236;48.058;10.632;2023-05-29T04:23:59;8.00;;;4.28;;
56329;SDS011;42236;48.058;10.632;2023-05-29T04:26:45;10.00;;;4.57;;
56329;SDS011;42236;48.058;10.632;2023-05-29T04:29:31;7.68;;;3.88;;
56329;SDS011;42236;48.058;10.632;2023-05-29T04:32:19;7.15;;;4.25;;
56329;SDS011;42236;48.058;10.632;2023-05-29T04:35:05;7.68;;;4.65;;
56329;SDS011;42236;48.058;10.632;2023-05-29T04:37:51;7.75;;;3.97;;
56329;SDS011;42236;48.058;10.632;2023-05-29T04:40:38;9.05;;;4.57;;
56329;SDS011;42236;48.058;10.632;2023-05-29T04:43:25;9.10;;;4.57;;
56329;SDS011;42236;48.058;10.632;2023-05-29T04:46:11;6.85;;;4.13;;
56329;SDS011;42236;48.058;10.632;2023-05-29T04:48:58;6.65;;;4.45;;
56329;SDS011;42236;48.058;10.632;2023-05-29T04:51:43;10.05;;;4.80;;
56329;SDS011;42236;48.058;10.632;2023-05-29T04:54:29;7.82;;;4.70;;
56329;SDS011;42236;48.058;10.632;2023-05-29T04:57:15;9.32;;;4.75;;
56329;SDS011;42236;48.058;10.632;2023-05-29T05:00:01;8.52;;;4.90;;
56329;SDS011;42236;48.058;10.632;2023-05-29T05:02:52;7.93;;;5.20;;
56329;SDS011;42236;48.058;10.632;2023-05-29T05:05:38;11.88;;;5.45;;
56329;SDS011;42236;48.058;10.632;2023-05-29T05:08:23;9.95;;;5.88;;
56329;SDS011;42236;48.058;10.632;2023-05-29T05:11:09;12.45;;;6.28;;
56329;SDS011;42236;48.058;10.632;2023-05-29T05:13:55;10.73;;;5.30;;
56329;SDS011;42236;48.058;10.632;2023-05-29T05:16:40;6.90;;;5.47;;
56329;SDS011;42236;48.058;10.632;2023-05-29T05:19:26;8.70;;;5.13;;
56329;SDS011;42236;48.058;10.632;2023-05-29T05:22:12;9.27;;;4.63;;
56329;SDS011;42236;48.058;10.632;2023-05-29T05:24:58;9.75;;;5.55;;
56329;SDS011;42236;48.058;10.632;2023-05-29T05:27:44;9.35;;;5.65;;
56329;SDS011;42236;48.058;10.632;2023-05-29T05:30:30;9.13;;;5.63;;
56329;SDS011;42236;48.058;10.632;2023-05-29T05:33:16;9.57;;;5.30;;
56329;SDS011;42236;48.058;10.632;2023-05-29T05:36:02;9.02;;;5.78;;
56329;SDS011;42236;48.058;10.632;2023-05-29T05:38:48;7.90;;;4.50;;
56329;SDS011;42236;48.058;10.632;2023-05-29T05:41:34;8.73;;;4.65;;
56329;SDS011;42236;48.058;10.632;2023-05-29T05:44:20;8.68;;;4.80;;
56329;SDS011;42236;48.058;10.632;2023-05-29T05:47:05;7.13;;;5.30;;
56329;SDS011;42236;48.058;10.632;2023-05-29T05:49:51;9.20;;;4.85;;
56329;SDS011;42236;48.058;10.632;2023-05-29T05:52:37;6.60;;;4.18;;
56329;SDS011;42236;48.058;10.632;2023-05-29T05:55:23;8.65;;;5.20;;
56329;SDS011;42236;48.058;10.632;2023-05-29T05:58:09;11.38;;;5.55;;
56329;SDS011;42236;48.058;10.632;2023-05-29T06:00:54;11.15;;;5.32;;
56329;SDS011;42236;48.058;10.632;2023-05-29T06:03:40;7.57;;;4.75;;
56329;SDS011;42236;48.058;10.632;2023-05-29T06:06:26;8.90;;;4.57;;
56329;SDS011;42236;48.058;10.632;2023-05-29T06:09:12;8.50;;;4.75;;
56329;SDS011;42236;48.058;10.632;2023-05-29T06:11:58;7.30;;;5.55;;
56329;SDS011;42236;48.058;10.632;2023-05-29T06:14:44;6.72;;;4.78;;
56329;SDS011;42236;48.058;10.632;2023-05-29T06:17:30;9.02;;;5.43;;
56329;SDS011;42236;48.058;10.632;2023-05-29T06:20:15;7.90;;;4.85;;
56329;SDS011;42236;48.058;10.632;2023-05-29T06:23:01;7.30;;;5.13;;
56329;SDS011;42236;48.058;10.632;2023-05-29T06:25:47;9.25;;;4.65;;
56329;SDS011;42236;48.058;10.632;2023-05-29T06:28:33;7.28;;;4.68;;
56329;SDS011;42236;48.058;10.632;2023-05-29T06:31:19;9.73;;;4.88;;
56329;SDS011;42236;48.058;10.632;2023-05-29T06:34:05;8.15;;;5.55;;
56329;SDS011;42236;48.058;10.632;2023-05-29T06:36:51;10.80;;;5.78;;
56329;SDS011;42236;48.058;10.632;2023-05-29T06:39:37;8.38;;;4.95;;
56329;SDS011;42236;48.058;10.632;2023-05-29T06:42:24;8.57;;;5.50;;
56329;SDS011;42236;48.058;10.632;2023-05-29T06:45:10;8.20;;;5.22;;
56329;SDS011;42236;48.058;10.632;2023-05-29T06:47:59;7.72;;;4.75;;
56329;SDS011;42236;48.058;10.632;2023-05-29T06:50:46;8.68;;;5.60;;
56329;SDS011;42236;48.058;10.632;2023-05-29T06:53:34;7.57;;;4.55;;
56329;SDS011;42236;48.058;10.632;2023-05-29T06:56:20;6.47;;;4.53;;
56329;SDS011;42236;48.058;10.632;2023-05-29T06:59:07;7.53;;;4.32;;
56329;SDS011;42236;48.058;10.632;2023-05-29T07:01:53;9.00;;;4.63;;
56329;SDS011;42236;48.058;10.632;2023-05-29T07:04:39;8.50;;;5.40;;
56329;SDS011;42236;48.058;10.632;2023-05-29T07:07:24;7.18;;;4.82;;
56329;SDS011;42236;48.058;10.632;2023-05-29T07:10:11;6.60;;;4.28;;
56329;SDS011;42236;48.058;10.632;2023-05-29T07:12:57;10.48;;;5.45;;
56329;SDS011;42236;48.058;10.632;2023-05-29T07:15:43;8.35;;;5.28;;
56329;SDS011;42236;48.058;10.632;2023-05-29T07:18:29;8.95;;;4.63;;
56329;SDS011;42236;48.058;10.632;2023-05-29T07:21:16;8.95;;;5.72;;
56329;SDS011;42236;48.058;10.632;2023-05-29T07:24:03;9.13;;;4.85;;
56329;SDS011;42236;48.058;10.632;2023-05-29T07:26:49;8.25;;;4.90;;
56329;SDS011;42236;48.058;10.632;2023-05-29T07:29:35;8.23;;;4.28;;
56329;SDS011;42236;48.058;10.632;2023-05-29T07:32:21;7.03;;;4.15;;
56329;SDS011;42236;48.058;10.632;2023-05-29T07:35:07;8.90;;;4.88;;
56329;SDS011;42236;48.058;10.632;2023-05-29T07:37:53;6.28;;;4.15;;
56329;SDS011;42236;48.058;10.632;2023-05-29T07:40:39;7.72;;;4.20;;
56329;SDS011;42236;48.058;10.632;2023-05-29T07:43:25;7.13;;;3.80;;
56329;SDS011;42236;48.058;10.632;2023-05-29T07:46:11;6.28;;;3.78;;
56329;SDS011;42236;48.058;10.632;2023-05-29T07:48:56;7.53;;;4.22;;
56329;SDS011;42236;48.058;10.632;2023-05-29T07:51:42;8.70;;;4.65;;
56329;SDS011;42236;48.058;10.632;2023-05-29T07:54:28;7.45;;;3.83;;
56329;SDS011;42236;48.058;10.632;2023-05-29T07:57:14;6.03;;;3.97;;
56329;SDS011;42236;48.058;10.632;2023-05-29T08:00:00;5.18;;;4.10;;
56329;SDS011;42236;48.058;10.632;2023-05-29T08:02:48;7.32;;;3.83;;
56329;SDS011;42236;48.058;10.632;2023-05-29T08:05:33;9.73;;;3.63;;
56329;SDS011;42236;48.058;10.632;2023-05-29T08:08:19;6.60;;;3.72;;
56329;SDS011;42236;48.058;10.632;2023-05-29T08:11:05;7.00;;;3.60;;
56329;SDS011;42236;48.058;10.632;2023-05-29T08:13:55;6.00;;;3.72;;
56329;SDS011;42236;48.058;10.632;2023-05-29T08:16:41;3.85;;;2.90;;
56329;SDS011;42236;48.058;10.632;2023-05-29T08:19:27;6.40;;;3.50;;
56329;SDS011;42236;48.058;10.632;2023-05-29T08:22:13;6.40;;;3.20;;
56329;SDS011;42236;48.058;10.632;2023-05-29T08:25:00;5.35;;;3.63;;
56329;SDS011;42236;48.058;10.632;2023-05-29T08:27:46;5.32;;;3.60;;
56329;SDS011;42236;48.058;10.632;2023-05-29T08:30:32;5.05;;;3.53;;
56329;SDS011;42236;48.058;10.632;2023-05-29T08:33:18;6.47;;;3.85;;
56329;SDS011;42236;48.058;10.632;2023-05-29T08:36:04;5.03;;;3.17;;
56329;SDS011;42236;48.058;10.632;2023-05-29T08:38:49;7.22;;;3.72;;
56329;SDS011;42236;48.058;10.632;2023-05-29T08:44:38;8.77;;;4.20;;
56329;SDS011;42236;48.058;10.632;2023-05-29T08:47:26;4.32;;;2.97;;
56329;SDS011;42236;48.058;10.632;2023-05-29T08:50:12;6.55;;;2.92;;
56329;SDS011;42236;48.058;10.632;2023-05-29T08:53:00;4.68;;;2.88;;
56329;SDS011;42236;48.058;10.632;2023-05-29T08:55:49;7.07;;;2.50;;
56329;SDS011;42236;48.058;10.632;2023-05-29T08:58:37;5.53;;;3.20;;
56329;SDS011;42236;48.058;10.632;2023-05-29T09:01:24;5.60;;;2.85;;
56329;SDS011;42236;48.058;10.632;2023-05-29T09:04:11;5.70;;;3.05;;
56329;SDS011;42236;48.058;10.632;2023-05-29T09:07:16;6.93;;;3.30;;
56329;SDS011;42236;48.058;10.632;2023-05-29T09:10:21;9.00;;;3.17;;
56329;SDS011;42236;48.058;10.632;2023-05-29T09:20:15;5.57;;;3.40;;
56329;SDS011;42236;48.058;10.632;2023-05-29T09:33:19;6.45;;;3.63;;
56329;SDS011;42236;48.058;10.632;2023-05-29T09:36:11;7.07;;;3.20;;
56329;SDS011;42236;48.058;10.632;2023-05-29T09:40:04;5.38;;;2.67;;
56329;SDS011;42236;48.058;10.632;2023-05-29T09:42:39;3.72;;;2.35;;
56329;SDS011;42236;48.058;10.632;2023-05-29T09:52:13;4.40;;;2.08;;
56329;SDS011;42236;48.058;10.632;2023-05-29T09:55:27;5.05;;;2.95;;
56329;SDS011;42236;48.058;10.632;2023-05-29T09:58:14;5.25;;;2.38;;
56329;SDS011;42236;48.058;10.632;2023-05-29T10:01:22;6.65;;;2.70;;
56329;SDS011;42236;48.058;10.632;2023-05-29T10:07:46;4.97;;;2.92;;
56329;SDS011;42236;48.058;10.632;2023-05-29T10:10:33;5.40;;;3.03;;
56329;SDS011;42236;48.058;10.632;2023-05-29T10:17:13;2.92;;;2.15;;
56329;SDS011;42236;48.058;10.632;2023-05-29T10:20:01;2.83;;;2.25;;
56329;SDS011;42236;48.058;10.632;2023-05-29T10:26:32;4.15;;;2.45;;
56329;SDS011;42236;48.058;10.632;2023-05-29T10:29:29;7.15;;;2.60;;
56329;SDS011;42236;48.058;10.632;2023-05-29T10:36:23;4.40;;;2.83;;
56329;SDS011;42236;48.058;10.632;2023-05-29T10:39:12;4.57;;;2.17;;
56329;SDS011;42236;48.058;10.632;2023-05-29T10:51:24;2.92;;;2.30;;
56329;SDS011;42236;48.058;10.632;2023-05-29T11:01:49;3.40;;;2.22;;
56329;SDS011;42236;48.058;10.632;2023-05-29T11:05:17;4.70;;;2.55;;
56329;SDS011;42236;48.058;10.632;2023-05-29T11:08:07;2.90;;;2.47;;
56329;SDS011;42236;48.058;10.632;2023-05-29T11:11:01;4.20;;;2.05;;
56329;SDS011;42236;48.058;10.632;2023-05-29T11:13:54;4.53;;;2.42;;
56329;SDS011;42236;48.058;10.632;2023-05-29T11:24:24;3.15;;;1.80;;
56329;SDS011;42236;48.058;10.632;2023-05-29T11:30:55;4.93;;;2.35;;
56329;SDS011;42236;48.058;10.632;2023-05-29T11:33:47;4.03;;;2.10;;
56329;SDS011;42236;48.058;10.632;2023-05-29T11:36:36;3.13;;;2.00;;
56329;SDS011;42236;48.058;10.632;2023-05-29T11:42:58;12.38;;;5.65;;
56329;SDS011;42236;48.058;10.632;2023-05-29T11:45:46;4.18;;;2.47;;
56329;SDS011;42236;48.058;10.632;2023-05-29T11:48:46;2.95;;;2.00;;
56329;SDS011;42236;48.058;10.632;2023-05-29T11:51:51;2.85;;;2.17;;
56329;SDS011;42236;48.058;10.632;2023-05-29T11:54:50;3.63;;;2.45;;
56329;SDS011;42236;48.058;10.632;2023-05-29T11:58:19;2.85;;;1.80;;
56329;SDS011;42236;48.058;10.632;2023-05-29T12:01:09;4.38;;;2.90;;
56329;SDS011;42236;48.058;10.632;2023-05-29T12:11:10;2.53;;;2.00;;
56329;SDS011;42236;48.058;10.632;2023-05-29T12:17:57;2.17;;;1.60;;
56329;SDS011;42236;48.058;10.632;2023-05-29T12:21:08;3.72;;;1.92;;
56329;SDS011;42236;48.058;10.632;2023-05-29T12:27:46;4.53;;;1.95;;
56329;SDS011;42236;48.058;10.632;2023-05-29T12:34:42;2.83;;;1.73;;
56329;SDS011;42236;48.058;10.632;2023-05-29T12:41:39;2.45;;;1.90;;
56329;SDS011;42236;48.058;10.632;2023-05-29T12:48:09;3.05;;;1.80;;
56329;SDS011;42236;48.058;10.632;2023-05-29T12:51:17;2.47;;;1.52;;
56329;SDS011;42236;48.058;10.632;2023-05-29T12:54:16;2.78;;;1.70;;
56329;SDS011;42236;48.058;10.632;2023-05-29T12:57:40;2.50;;;1.83;;
56329;SDS011;42236;48.058;10.632;2023-05-29T13:00:27;2.90;;;1.73;;
56329;SDS011;42236;48.058;10.632;2023-05-29T13:03:13;4.22;;;1.67;;
56329;SDS011;42236;48.058;10.632;2023-05-29T13:06:02;3.50;;;1.80;;
56329;SDS011;42236;48.058;10.632;2023-05-29T13:08:48;2.67;;;1.95;;
56329;SDS011;42236;48.058;10.632;2023-05-29T13:12:00;1.80;;;1.70;;
56329;SDS011;42236;48.058;10.632;2023-05-29T13:18:04;1.63;;;1.40;;
56329;SDS011;42236;48.058;10.632;2023-05-29T13:20:50;4.55;;;1.70;;
56329;SDS011;42236;48.058;10.632;2023-05-29T13:23:51;2.88;;;1.42;;
56329;SDS011;42236;48.058;10.632;2023-05-29T13:26:40;3.38;;;1.65;;
56329;SDS011;42236;48.058;10.632;2023-05-29T13:30:22;2.22;;;1.33;;
56329;SDS011;42236;48.058;10.632;2023-05-29T13:36:16;3.95;;;1.48;;
56329;SDS011;42236;48.058;10.632;2023-05-29T13:39:02;4.50;;;1.70;;
56329;SDS011;42236;48.058;10.632;2023-05-29T13:41:49;4.50;;;2.03;;
56329;SDS011;42236;48.058;10.632;2023-05-29T13:44:38;1.98;;;1.30;;
56329;SDS011;42236;48.058;10.632;2023-05-29T13:47:31;2.80;;;1.88;;
56329;SDS011;42236;48.058;10.632;2023-05-29T13:50:18;1.80;;;1.33;;
56329;SDS011;42236;48.058;10.632;2023-05-29T13:53:03;4.25;;;1.95;;
56329;SDS011;42236;48.058;10.632;2023-05-29T13:55:49;2.67;;;1.30;;
56329;SDS011;42236;48.058;10.632;2023-05-29T13:58:35;2.33;;;1.63;;
56329;SDS011;42236;48.058;10.632;2023-05-29T14:01:21;2.17;;;1.98;;
56329;SDS011;42236;48.058;10.632;2023-05-29T14:04:09;3.38;;;1.73;;
56329;SDS011;42236;48.058;10.632;2023-05-29T14:07:05;4.30;;;1.98;;
56329;SDS011;42236;48.058;10.632;2023-05-29T14:09:51;4.43;;;1.50;;
56329;SDS011;42236;48.058;10.632;2023-05-29T14:12:37;3.60;;;1.60;;
56329;SDS011;42236;48.058;10.632;2023-05-29T14:15:23;2.20;;;1.63;;
56329;SDS011;42236;48.058;10.632;2023-05-29T14:18:09;1.90;;;1.30;;
56329;SDS011;42236;48.058;10.632;2023-05-29T14:21:01;3.55;;;1.98;;
56329;SDS011;42236;48.058;10.632;2023-05-29T14:23:47;2.88;;;1.65;;
56329;SDS011;42236;48.058;10.632;2023-05-29T14:26:35;3.35;;;1.70;;
56329;SDS011;42236;48.058;10.632;2023-05-29T14:29:22;3.78;;;1.55;;
56329;SDS011;42236;48.058;10.632;2023-05-29T14:32:08;1.58;;;1.35;;
56329;SDS011;42236;48.058;10.632;2023-05-29T14:34:54;3.90;;;2.08;;
56329;SDS011;42236;48.058;10.632;2023-05-29T14:37:42;2.88;;;1.55;;
56329;SDS011;42236;48.058;10.632;2023-05-29T14:40:28;1.60;;;1.27;;
56329;SDS011;42236;48.058;10.632;2023-05-29T14:43:16;3.42;;;1.63;;
56329;SDS011;42236;48.058;10.632;2023-05-29T14:46:06;2.85;;;1.85;;
56329;SDS011;42236;48.058;10.632;2023-05-29T14:48:58;4.32;;;1.77;;
56329;SDS011;42236;48.058;10.632;2023-05-29T14:51:48;4.75;;;2.00;;
56329;SDS011;42236;48.058;10.632;2023-05-29T14:54:34;4.35;;;1.55;;
56329;SDS011;42236;48.058;10.632;2023-05-29T14:57:22;3.42;;;1.98;;
56329;SDS011;42236;48.058;10.632;2023-05-29T15:00:11;5.35;;;1.75;;
56329;SDS011;42236;48.058;10.632;2023-05-29T15:03:03;2.42;;;1.60;;
56329;SDS011;42236;48.058;10.632;2023-05-29T15:05:48;6.00;;;1.83;;
56329;SDS011;42236;48.058;10.632;2023-05-29T15:08:34;2.58;;;1.77;;
56329;SDS011;42236;48.058;10.632;2023-05-29T15:11:20;1.60;;;1.40;;
56329;SDS011;42236;48.058;10.632;2023-05-29T15:14:07;2.83;;;2.40;;
56329;SDS011;42236;48.058;10.632;2023-05-29T15:16:53;3.60;;;1.77;;
56329;SDS011;42236;48.058;10.632;2023-05-29T15:19:40;2.55;;;1.60;;
56329;SDS011;42236;48.058;10.632;2023-05-29T15:22:26;3.92;;;1.63;;
56329;SDS011;42236;48.058;10.632;2023-05-29T15:25:12;3.53;;;1.50;;
56329;SDS011;42236;48.058;10.632;2023-05-29T15:27:57;3.03;;;1.80;;
56329;SDS011;42236;48.058;10.632;2023-05-29T15:30:44;2.40;;;2.05;;
56329;SDS011;42236;48.058;10.632;2023-05-29T15:33:30;3.25;;;1.52;;
56329;SDS011;42236;48.058;10.632;2023-05-29T15:36:16;2.03;;;1.75;;
56329;SDS011;42236;48.058;10.632;2023-05-29T15:39:04;3.17;;;2.03;;
56329;SDS011;42236;48.058;10.632;2023-05-29T15:41:50;4.22;;;2.30;;
56329;SDS011;42236;48.058;10.632;2023-05-29T15:44:36;2.63;;;1.75;;
56329;SDS011;42236;48.058;10.632;2023-05-29T15:47:22;3.63;;;2.05;;
56329;SDS011;42236;48.058;10.632;2023-05-29T15:50:08;2.95;;;1.67;;
56329;SDS011;42236;48.058;10.632;2023-05-29T15:52:55;4.15;;;2.22;;
56329;SDS011;42236;48.058;10.632;2023-05-29T15:55:41;2.42;;;1.67;;
56329;SDS011;42236;48.058;10.632;2023-05-29T15:58:27;3.20;;;2.03;;
56329;SDS011;42236;48.058;10.632;2023-05-29T16:01:13;4.65;;;1.85;;
56329;SDS011;42236;48.058;10.632;2023-05-29T16:04:02;2.22;;;1.70;;
56329;SDS011;42236;48.058;10.632;2023-05-29T16:06:48;2.75;;;1.67;;
56329;SDS011;42236;48.058;10.632;2023-05-29T16:09:34;2.15;;;1.60;;
56329;SDS011;42236;48.058;10.632;2023-05-29T16:12:22;5.82;;;2.10;;
56329;SDS011;42236;48.058;10.632;2023-05-29T16:15:08;2.45;;;2.03;;
56329;SDS011;42236;48.058;10.632;2023-05-29T16:17:54;4.65;;;1.60;;
56329;SDS011;42236;48.058;10.632;2023-05-29T16:20:40;2.55;;;1.63;;
56329;SDS011;42236;48.058;10.632;2023-05-29T16:23:26;2.42;;;1.50;;
56329;SDS011;42236;48.058;10.632;2023-05-29T16:26:12;3.47;;;1.50;;
56329;SDS011;42236;48.058;10.632;2023-05-29T16:28:58;2.15;;;1.50;;
56329;SDS011;42236;48.058;10.632;2023-05-29T16:31:45;1.90;;;1.50;;
56329;SDS011;42236;48.058;10.632;2023-05-29T16:34:31;1.95;;;1.45;;
56329;SDS011;42236;48.058;10.632;2023-05-29T16:37:17;3.33;;;2.08;;
56329;SDS011;42236;48.058;10.632;2023-05-29T16:40:03;2.13;;;1.80;;
56329;SDS011;42236;48.058;10.632;2023-05-29T16:42:58;3.40;;;1.35;;
56329;SDS011;42236;48.058;10.632;2023-05-29T16:45:44;3.38;;;1.55;;
56329;SDS011;42236;48.058;10.632;2023-05-29T16:48:30;2.75;;;1.70;;
56329;SDS011;42236;48.058;10.632;2023-05-29T16:51:16;5.18;;;1.90;;
56329;SDS011;42236;48.058;10.632;2023-05-29T16:54:02;4.25;;;2.40;;
56329;SDS011;42236;48.058;10.632;2023-05-29T16:56:48;6.63;;;1.73;;
56329;SDS011;42236;48.058;10.632;2023-05-29T16:59:34;3.53;;;1.77;;
56329;SDS011;42236;48.058;10.632;2023-05-29T17:02:29;4.35;;;1.67;;
56329;SDS011;42236;48.058;10.632;2023-05-29T17:05:15;2.65;;;1.63;;
56329;SDS011;42236;48.058;10.632;2023-05-29T17:08:01;2.85;;;1.85;;
56329;SDS011;42236;48.058;10.632;2023-05-29T17:10:47;2.33;;;1.50;;
56329;SDS011;42236;48.058;10.632;2023-05-29T17:13:33;2.58;;;1.70;;
56329;SDS011;42236;48.058;10.632;2023-05-29T17:16:19;4.68;;;1.83;;
56329;SDS011;42236;48.058;10.632;2023-05-29T17:19:05;2.10;;;1.75;;
56329;SDS011;42236;48.058;10.632;2023-05-29T17:21:51;2.72;;;1.80;;
56329;SDS011;42236;48.058;10.632;2023-05-29T17:24:40;3.50;;;2.08;;
56329;SDS011;42236;48.058;10.632;2023-05-29T17:27:26;3.28;;;1.80;;
56329;SDS011;42236;48.058;10.632;2023-05-29T17:30:12;2.53;;;2.33;;
56329;SDS011;42236;48.058;10.632;2023-05-29T17:32:59;3.40;;;1.63;;
56329;SDS011;42236;48.058;10.632;2023-05-29T17:35:48;3.22;;;1.50;;
56329;SDS011;42236;48.058;10.632;2023-05-29T17:38:34;4.90;;;1.50;;
56329;SDS011;42236;48.058;10.632;2023-05-29T17:41:19;2.75;;;1.40;;
56329;SDS011;42236;48.058;10.632;2023-05-29T17:44:05;2.72;;;1.80;;
56329;SDS011;42236;48.058;10.632;2023-05-29T17:46:51;2.88;;;1.70;;
56329;SDS011;42236;48.058;10.632;2023-05-29T17:49:38;3.45;;;1.88;;
56329;SDS011;42236;48.058;10.632;2023-05-29T17:52:24;4.00;;;1.40;;
56329;SDS011;42236;48.058;10.632;2023-05-29T17:55:11;2.47;;;1.65;;
56329;SDS011;42236;48.058;10.632;2023-05-29T17:57:56;2.78;;;1.60;;
56329;SDS011;42236;48.058;10.632;2023-05-29T18:00:42;3.42;;;1.88;;
56329;SDS011;42236;48.058;10.632;2023-05-29T18:03:29;3.42;;;1.70;;
56329;SDS011;42236;48.058;10.632;2023-05-29T18:06:15;4.90;;;1.67;;
56329;SDS011;42236;48.058;10.632;2023-05-29T18:09:00;8.65;;;1.80;;
56329;SDS011;42236;48.058;10.632;2023-05-29T18:11:47;1.60;;;1.48;;
56329;SDS011;42236;48.058;10.632;2023-05-29T18:14:32;3.08;;;1.80;;
56329;SDS011;42236;48.058;10.632;2023-05-29T18:17:18;3.03;;;1.83;;
56329;SDS011;42236;48.058;10.632;2023-05-29T18:20:05;4.03;;;1.90;;
56329;SDS011;42236;48.058;10.632;2023-05-29T18:22:52;3.83;;;2.30;;
56329;SDS011;42236;48.058;10.632;2023-05-29T18:25:38;4.95;;;2.28;;
56329;SDS011;42236;48.058;10.632;2023-05-29T18:28:23;3.50;;;2.00;;
56329;SDS011;42236;48.058;10.632;2023-05-29T18:31:09;3.17;;;2.15;;
56329;SDS011;42236;48.058;10.632;2023-05-29T18:33:55;4.43;;;2.38;;
56329;SDS011;42236;48.058;10.632;2023-05-29T18:36:41;4.32;;;3.08;;
56329;SDS011;42236;48.058;10.632;2023-05-29T18:39:27;3.40;;;1.95;;